N35386 KSEZ-KCOS
Flight info
| Callsign | N35386 |
|---|---|
| Flight time | 2h 50m |
| Altitude | 16000 |
| Route | ABQ FTI PUB |
| Aircraft | C208/L-SDFGR/C |
Departure
| Time | 2026-04-23 03:54 |
|---|---|
| Airport | Sedona Airport (KSEZ) |
Arrival
| Time | 2026-04-23 06:44 |
|---|---|
| Airport | City of Colorado Springs Municipal Airport (KCOS) |
| Time | Latitude | Longitude | Altitude | Speed | Heading |
|---|---|---|---|---|---|
| 2026-04-23 03:36 | 34.84930 | -111.79161 | 4790 ft | 0 kts | 317° |
| 2026-04-23 03:47 | 34.84930 | -111.79162 | 4790 ft | 0 kts | 317° |
| 2026-04-23 03:47 | 34.84938 | -111.79165 | 4781 ft | 3 kts | 3° |
| 2026-04-23 03:47 | 34.84937 | -111.79142 | 4791 ft | 5 kts | 136° |
| 2026-04-23 03:47 | 34.84900 | -111.79099 | 4790 ft | 9 kts | 136° |
| 2026-04-23 03:48 | 34.84859 | -111.79050 | 4786 ft | 10 kts | 135° |
| 2026-04-23 03:48 | 34.84843 | -111.78985 | 4783 ft | 9 kts | 48° |
| 2026-04-23 03:48 | 34.84889 | -111.78928 | 4787 ft | 10 kts | 46° |
| 2026-04-23 03:48 | 34.84939 | -111.78866 | 4790 ft | 11 kts | 45° |
| 2026-04-23 03:49 | 34.84990 | -111.78802 | 4794 ft | 11 kts | 45° |
| 2026-04-23 03:49 | 34.85046 | -111.78732 | 4800 ft | 11 kts | 45° |
| 2026-04-23 03:49 | 34.85105 | -111.78659 | 4807 ft | 13 kts | 46° |
| 2026-04-23 03:49 | 34.85167 | -111.78582 | 4817 ft | 12 kts | 45° |
| 2026-04-23 03:50 | 34.85225 | -111.78510 | 4826 ft | 12 kts | 45° |
| 2026-04-23 03:50 | 34.85276 | -111.78446 | 4830 ft | 10 kts | 45° |
| 2026-04-23 03:50 | 34.85324 | -111.78386 | 4836 ft | 10 kts | 45° |
| 2026-04-23 03:50 | 34.85366 | -111.78324 | 4836 ft | 9 kts | 68° |
| 2026-04-23 03:51 | 34.85373 | -111.78294 | 4835 ft | 0 kts | 90° |
| 2026-04-23 03:52 | 34.85373 | -111.78290 | 4835 ft | 2 kts | 94° |
| 2026-04-23 03:53 | 34.85355 | -111.78252 | 4840 ft | 6 kts | 135° |
| 2026-04-23 03:53 | 34.85316 | -111.78273 | 4839 ft | 13 kts | 226° |
| 2026-04-23 03:53 | 34.85126 | -111.78511 | 4818 ft | 70 kts | 226° |
| 2026-04-23 03:53 | 34.84711 | -111.79027 | 4874 ft | 97 kts | 228° |
| 2026-04-23 03:54 | 34.84170 | -111.79704 | 5010 ft | 116 kts | 229° |
| 2026-04-23 03:54 | 34.83561 | -111.80382 | 5196 ft | 127 kts | 216° |
| 2026-04-23 03:54 | 34.82837 | -111.81021 | 5462 ft | 130 kts | 216° |
| 2026-04-23 03:54 | 34.81953 | -111.81300 | 5719 ft | 139 kts | 176° |
| 2026-04-23 03:55 | 34.81081 | -111.80706 | 5957 ft | 153 kts | 133° |
| 2026-04-23 03:55 | 34.80721 | -111.79473 | 6273 ft | 162 kts | 95° |
| 2026-04-23 03:55 | 34.81051 | -111.78146 | 6450 ft | 170 kts | 57° |
| 2026-04-23 03:55 | 34.81910 | -111.77247 | 6700 ft | 163 kts | 26° |
| 2026-04-23 03:56 | 34.82938 | -111.76675 | 6972 ft | 164 kts | 22° |
| 2026-04-23 03:56 | 34.83994 | -111.76124 | 7221 ft | 162 kts | 21° |
| 2026-04-23 03:56 | 34.85018 | -111.75533 | 7466 ft | 165 kts | 39° |
| 2026-04-23 03:56 | 34.85583 | -111.74363 | 7710 ft | 163 kts | 84° |
| 2026-04-23 03:57 | 34.85692 | -111.72979 | 7922 ft | 163 kts | 94° |
| 2026-04-23 03:57 | 34.85738 | -111.71553 | 8157 ft | 174 kts | 90° |
| 2026-04-23 03:57 | 34.85820 | -111.70100 | 8429 ft | 169 kts | 89° |
| 2026-04-23 03:57 | 34.85911 | -111.68635 | 8669 ft | 176 kts | 90° |
| 2026-04-23 03:58 | 34.85999 | -111.67153 | 8927 ft | 178 kts | 92° |
| 2026-04-23 03:58 | 34.86081 | -111.65620 | 9170 ft | 184 kts | 91° |
| 2026-04-23 03:58 | 34.86171 | -111.64055 | 9417 ft | 185 kts | 91° |
| 2026-04-23 03:58 | 34.86267 | -111.62500 | 9661 ft | 184 kts | 91° |
| 2026-04-23 03:59 | 34.86356 | -111.60976 | 9908 ft | 178 kts | 92° |
| 2026-04-23 03:59 | 34.86442 | -111.59476 | 10143 ft | 177 kts | 91° |
| 2026-04-23 03:59 | 34.86527 | -111.57978 | 10364 ft | 177 kts | 91° |
| 2026-04-23 03:59 | 34.86613 | -111.56479 | 10599 ft | 180 kts | 92° |
| 2026-04-23 04:00 | 34.86699 | -111.54961 | 10754 ft | 181 kts | 92° |
| 2026-04-23 04:00 | 34.86786 | -111.53433 | 10996 ft | 179 kts | 91° |
| 2026-04-23 04:00 | 34.86873 | -111.51922 | 11237 ft | 178 kts | 91° |
| 2026-04-23 04:00 | 34.86957 | -111.50421 | 11482 ft | 178 kts | 92° |
| 2026-04-23 04:01 | 34.87041 | -111.48912 | 11729 ft | 179 kts | 92° |
| 2026-04-23 04:01 | 34.87127 | -111.47397 | 11976 ft | 180 kts | 92° |
| 2026-04-23 04:01 | 34.87213 | -111.45871 | 12231 ft | 181 kts | 91° |
| 2026-04-23 04:01 | 34.87300 | -111.44337 | 12479 ft | 182 kts | 91° |
| 2026-04-23 04:02 | 34.87383 | -111.42812 | 12731 ft | 183 kts | 91° |
| 2026-04-23 04:02 | 34.87472 | -111.41235 | 12992 ft | 186 kts | 91° |
| 2026-04-23 04:02 | 34.87559 | -111.39668 | 13249 ft | 185 kts | 91° |
| 2026-04-23 04:02 | 34.87647 | -111.38105 | 13509 ft | 184 kts | 91° |
| 2026-04-23 04:03 | 34.87731 | -111.36572 | 13759 ft | 183 kts | 91° |
| 2026-04-23 04:03 | 34.87818 | -111.35029 | 13991 ft | 182 kts | 91° |
| 2026-04-23 04:03 | 34.87902 | -111.33494 | 14219 ft | 181 kts | 91° |
| 2026-04-23 04:03 | 34.87986 | -111.31973 | 14455 ft | 180 kts | 91° |
| 2026-04-23 04:04 | 34.88069 | -111.30460 | 14689 ft | 179 kts | 91° |
| 2026-04-23 04:04 | 34.88152 | -111.28955 | 14924 ft | 178 kts | 91° |
| 2026-04-23 04:04 | 34.88234 | -111.27457 | 15162 ft | 177 kts | 91° |
| 2026-04-23 04:04 | 34.88316 | -111.25962 | 15403 ft | 176 kts | 91° |
| 2026-04-23 04:05 | 34.88398 | -111.24477 | 15645 ft | 176 kts | 91° |
| 2026-04-23 04:05 | 34.88477 | -111.22998 | 15875 ft | 176 kts | 91° |
| 2026-04-23 04:05 | 34.88557 | -111.21437 | 15886 ft | 193 kts | 91° |
| 2026-04-23 04:05 | 34.88645 | -111.19755 | 15896 ft | 205 kts | 90° |
| 2026-04-23 04:06 | 34.88741 | -111.17978 | 15894 ft | 214 kts | 90° |
| 2026-04-23 04:06 | 34.88840 | -111.16144 | 15896 ft | 220 kts | 90° |
| 2026-04-23 04:06 | 34.88940 | -111.14267 | 15892 ft | 224 kts | 90° |
| 2026-04-23 04:06 | 34.89042 | -111.12368 | 15885 ft | 225 kts | 89° |
| 2026-04-23 04:07 | 34.89143 | -111.10467 | 15891 ft | 225 kts | 89° |
| 2026-04-23 04:07 | 34.89244 | -111.08572 | 15899 ft | 224 kts | 90° |
| 2026-04-23 04:07 | 34.89344 | -111.06678 | 15906 ft | 224 kts | 90° |
| 2026-04-23 04:07 | 34.89445 | -111.04779 | 15913 ft | 225 kts | 89° |
| 2026-04-23 04:08 | 34.89545 | -111.02881 | 15921 ft | 225 kts | 89° |
| 2026-04-23 04:08 | 34.89644 | -111.00979 | 15927 ft | 225 kts | 89° |
| 2026-04-23 04:08 | 34.89744 | -110.99078 | 15929 ft | 225 kts | 89° |
| 2026-04-23 04:08 | 34.89843 | -110.97178 | 15937 ft | 226 kts | 90° |
| 2026-04-23 04:09 | 34.89942 | -110.95273 | 15937 ft | 224 kts | 91° |
| 2026-04-23 04:09 | 34.90040 | -110.93381 | 15948 ft | 224 kts | 90° |
| 2026-04-23 04:09 | 34.90138 | -110.91490 | 15956 ft | 224 kts | 89° |
| 2026-04-23 04:09 | 34.90235 | -110.89597 | 15963 ft | 224 kts | 89° |
| 2026-04-23 04:10 | 34.90333 | -110.87699 | 15968 ft | 224 kts | 89° |
| 2026-04-23 04:10 | 34.90430 | -110.85803 | 15963 ft | 224 kts | 90° |
| 2026-04-23 04:10 | 34.90528 | -110.83905 | 15976 ft | 225 kts | 90° |
| 2026-04-23 04:10 | 34.90624 | -110.82000 | 15981 ft | 225 kts | 90° |
| 2026-04-23 04:11 | 34.90721 | -110.80094 | 15984 ft | 225 kts | 90° |
| 2026-04-23 04:11 | 34.90817 | -110.78192 | 15988 ft | 225 kts | 89° |
| 2026-04-23 04:11 | 34.90913 | -110.76293 | 15990 ft | 225 kts | 89° |
| 2026-04-23 04:11 | 34.91008 | -110.74394 | 15991 ft | 224 kts | 89° |
| 2026-04-23 04:12 | 34.91103 | -110.72496 | 15992 ft | 224 kts | 89° |
| 2026-04-23 04:12 | 34.91198 | -110.70599 | 15991 ft | 224 kts | 89° |
| 2026-04-23 04:12 | 34.91292 | -110.68706 | 15992 ft | 224 kts | 89° |
| 2026-04-23 04:12 | 34.91386 | -110.66813 | 15989 ft | 224 kts | 89° |
| 2026-04-23 04:13 | 34.91479 | -110.64945 | 15986 ft | 224 kts | 89° |
| 2026-04-23 04:13 | 34.91573 | -110.63053 | 15984 ft | 224 kts | 90° |
| 2026-04-23 04:13 | 34.91666 | -110.61160 | 15868 ft | 224 kts | 90° |
| 2026-04-23 04:13 | 34.91759 | -110.59262 | 15860 ft | 224 kts | 89° |
| 2026-04-23 04:14 | 34.91852 | -110.57367 | 15863 ft | 224 kts | 89° |
| 2026-04-23 04:14 | 34.91944 | -110.55469 | 15862 ft | 224 kts | 89° |
| 2026-04-23 04:14 | 34.92036 | -110.53571 | 15863 ft | 224 kts | 89° |
| 2026-04-23 04:14 | 34.92098 | -110.52312 | 15864 ft | 224 kts | 89° |
| 2026-04-23 04:15 | 34.92189 | -110.50413 | 15858 ft | 224 kts | 89° |
| 2026-04-23 04:15 | 34.92281 | -110.48509 | 15858 ft | 224 kts | 89° |
| 2026-04-23 04:15 | 34.92462 | -110.44729 | 15850 ft | 223 kts | 89° |
| 2026-04-23 04:16 | 34.92551 | -110.42846 | 15848 ft | 222 kts | 90° |
| 2026-04-23 04:16 | 34.92641 | -110.40970 | 15848 ft | 221 kts | 90° |
| 2026-04-23 04:16 | 34.92730 | -110.39098 | 15849 ft | 221 kts | 90° |
| 2026-04-23 04:16 | 34.92818 | -110.37229 | 15848 ft | 221 kts | 89° |
| 2026-04-23 04:17 | 34.92906 | -110.35364 | 15850 ft | 220 kts | 89° |
| 2026-04-23 04:17 | 34.92992 | -110.33523 | 15839 ft | 220 kts | 89° |
| 2026-04-23 04:17 | 34.93079 | -110.31662 | 15839 ft | 220 kts | 90° |
| 2026-04-23 04:17 | 34.93166 | -110.29799 | 15841 ft | 221 kts | 90° |
| 2026-04-23 04:18 | 34.93253 | -110.27931 | 15840 ft | 221 kts | 90° |
| 2026-04-23 04:18 | 34.93339 | -110.26063 | 15840 ft | 221 kts | 90° |
| 2026-04-23 04:18 | 34.93426 | -110.24198 | 15841 ft | 221 kts | 90° |
| 2026-04-23 04:18 | 34.93512 | -110.22330 | 15840 ft | 221 kts | 90° |
| 2026-04-23 04:19 | 34.93597 | -110.20468 | 15839 ft | 220 kts | 89° |
| 2026-04-23 04:19 | 34.93682 | -110.18609 | 15832 ft | 220 kts | 89° |
| 2026-04-23 04:19 | 34.93766 | -110.16746 | 15832 ft | 221 kts | 90° |
| 2026-04-23 04:19 | 34.93851 | -110.14878 | 15830 ft | 221 kts | 90° |
| 2026-04-23 04:20 | 34.93936 | -110.13009 | 15835 ft | 220 kts | 90° |
| 2026-04-23 04:20 | 34.94020 | -110.11144 | 15834 ft | 220 kts | 90° |
| 2026-04-23 04:20 | 34.94103 | -110.09283 | 15837 ft | 220 kts | 90° |
| 2026-04-23 04:20 | 34.94187 | -110.07426 | 15838 ft | 220 kts | 90° |
| 2026-04-23 04:21 | 34.94270 | -110.05567 | 15829 ft | 220 kts | 90° |
| 2026-04-23 04:21 | 34.94352 | -110.03707 | 15828 ft | 220 kts | 90° |
| 2026-04-23 04:21 | 34.94434 | -110.01850 | 15828 ft | 220 kts | 90° |
| 2026-04-23 04:21 | 34.94516 | -109.99991 | 15828 ft | 220 kts | 90° |
| 2026-04-23 04:22 | 34.94598 | -109.98133 | 15829 ft | 220 kts | 90° |
| 2026-04-23 04:22 | 34.94679 | -109.96299 | 15829 ft | 219 kts | 91° |
| 2026-04-23 04:22 | 34.94761 | -109.94417 | 15828 ft | 219 kts | 91° |
| 2026-04-23 04:22 | 34.94841 | -109.92589 | 15820 ft | 219 kts | 90° |
| 2026-04-23 04:23 | 34.94921 | -109.90736 | 15821 ft | 219 kts | 90° |
| 2026-04-23 04:23 | 34.95002 | -109.88875 | 15821 ft | 220 kts | 90° |
| 2026-04-23 04:23 | 34.95082 | -109.87019 | 15821 ft | 220 kts | 90° |
| 2026-04-23 04:23 | 34.95161 | -109.85158 | 15822 ft | 220 kts | 90° |
| 2026-04-23 04:24 | 34.95241 | -109.83296 | 15818 ft | 220 kts | 90° |
| 2026-04-23 04:24 | 34.95320 | -109.81435 | 15818 ft | 220 kts | 90° |
| 2026-04-23 04:24 | 34.95399 | -109.79576 | 15817 ft | 220 kts | 91° |
| 2026-04-23 04:24 | 34.95478 | -109.77717 | 15816 ft | 220 kts | 90° |
| 2026-04-23 04:25 | 34.95557 | -109.75859 | 15815 ft | 220 kts | 90° |
| 2026-04-23 04:25 | 34.95635 | -109.73997 | 15816 ft | 220 kts | 90° |
| 2026-04-23 04:25 | 34.95713 | -109.72135 | 15815 ft | 220 kts | 90° |
| 2026-04-23 04:25 | 34.95790 | -109.70276 | 15816 ft | 220 kts | 91° |
| 2026-04-23 04:26 | 34.95867 | -109.68414 | 15816 ft | 220 kts | 91° |
| 2026-04-23 04:26 | 34.95945 | -109.66548 | 15817 ft | 220 kts | 91° |
| 2026-04-23 04:26 | 34.96022 | -109.64685 | 15808 ft | 220 kts | 91° |
| 2026-04-23 04:26 | 34.96099 | -109.62819 | 15808 ft | 220 kts | 91° |
| 2026-04-23 04:27 | 34.96175 | -109.60956 | 15809 ft | 220 kts | 90° |
| 2026-04-23 04:27 | 34.96251 | -109.59090 | 15808 ft | 220 kts | 90° |
| 2026-04-23 04:27 | 34.96326 | -109.57227 | 15809 ft | 221 kts | 91° |
| 2026-04-23 04:28 | 34.96477 | -109.53492 | 15808 ft | 221 kts | 91° |
| 2026-04-23 04:28 | 34.96552 | -109.51623 | 15803 ft | 221 kts | 91° |
| 2026-04-23 04:28 | 34.96627 | -109.49752 | 15803 ft | 221 kts | 91° |
| 2026-04-23 04:28 | 34.96702 | -109.47882 | 15804 ft | 221 kts | 91° |
| 2026-04-23 04:29 | 34.96775 | -109.46039 | 15804 ft | 221 kts | 91° |
| 2026-04-23 04:29 | 34.96849 | -109.44165 | 15808 ft | 221 kts | 91° |
| 2026-04-23 04:29 | 34.96923 | -109.42294 | 15809 ft | 221 kts | 91° |
| 2026-04-23 04:29 | 34.96996 | -109.40423 | 15810 ft | 221 kts | 91° |
| 2026-04-23 04:30 | 34.97069 | -109.38551 | 15807 ft | 221 kts | 91° |
| 2026-04-23 04:30 | 34.97142 | -109.36671 | 15805 ft | 221 kts | 91° |
| 2026-04-23 04:30 | 34.97215 | -109.34797 | 15805 ft | 221 kts | 91° |
| 2026-04-23 04:30 | 34.97288 | -109.32928 | 15808 ft | 221 kts | 91° |
| 2026-04-23 04:31 | 34.97360 | -109.31058 | 15809 ft | 221 kts | 91° |
| 2026-04-23 04:31 | 34.97431 | -109.29191 | 15809 ft | 221 kts | 91° |
| 2026-04-23 04:31 | 34.97503 | -109.27320 | 15809 ft | 221 kts | 91° |
| 2026-04-23 04:31 | 34.97574 | -109.25448 | 15794 ft | 221 kts | 91° |
| 2026-04-23 04:32 | 34.97645 | -109.23581 | 15795 ft | 221 kts | 91° |
| 2026-04-23 04:32 | 34.97715 | -109.21711 | 15796 ft | 221 kts | 91° |
| 2026-04-23 04:32 | 34.97785 | -109.19839 | 15795 ft | 221 kts | 91° |
| 2026-04-23 04:32 | 34.97855 | -109.17970 | 15796 ft | 221 kts | 91° |
| 2026-04-23 04:33 | 34.97925 | -109.16092 | 15796 ft | 221 kts | 91° |
| 2026-04-23 04:33 | 34.97995 | -109.14220 | 15796 ft | 221 kts | 91° |
| 2026-04-23 04:33 | 34.98064 | -109.12345 | 15797 ft | 221 kts | 91° |
| 2026-04-23 04:33 | 34.98133 | -109.10471 | 15791 ft | 221 kts | 91° |
| 2026-04-23 04:34 | 34.98202 | -109.08595 | 15793 ft | 221 kts | 91° |
| 2026-04-23 04:34 | 34.98270 | -109.06723 | 15794 ft | 221 kts | 91° |
| 2026-04-23 04:34 | 34.98338 | -109.04848 | 15794 ft | 221 kts | 91° |
| 2026-04-23 04:34 | 34.98405 | -109.02980 | 15793 ft | 221 kts | 91° |
| 2026-04-23 04:35 | 34.98473 | -109.01111 | 15790 ft | 220 kts | 91° |
| 2026-04-23 04:35 | 34.98540 | -108.99244 | 15790 ft | 220 kts | 91° |
| 2026-04-23 04:35 | 34.98607 | -108.97379 | 15791 ft | 220 kts | 91° |
| 2026-04-23 04:35 | 34.98673 | -108.95509 | 15769 ft | 221 kts | 91° |
| 2026-04-23 04:36 | 34.98739 | -108.93643 | 15779 ft | 220 kts | 91° |
| 2026-04-23 04:36 | 34.98804 | -108.91805 | 15779 ft | 220 kts | 91° |
| 2026-04-23 04:36 | 34.98869 | -108.89939 | 15777 ft | 220 kts | 90° |
| 2026-04-23 04:36 | 34.98934 | -108.88072 | 15781 ft | 221 kts | 91° |
| 2026-04-23 04:37 | 34.98999 | -108.86195 | 15781 ft | 222 kts | 91° |
| 2026-04-23 04:37 | 34.99065 | -108.84315 | 15785 ft | 222 kts | 91° |
| 2026-04-23 04:37 | 34.99130 | -108.82433 | 15782 ft | 222 kts | 91° |
| 2026-04-23 04:37 | 34.99194 | -108.80563 | 15780 ft | 221 kts | 91° |
| 2026-04-23 04:38 | 34.99259 | -108.78718 | 15783 ft | 220 kts | 91° |
| 2026-04-23 04:38 | 34.99321 | -108.76856 | 15791 ft | 220 kts | 91° |
| 2026-04-23 04:38 | 34.99383 | -108.74997 | 15785 ft | 218 kts | 91° |
| 2026-04-23 04:38 | 34.99446 | -108.73157 | 15798 ft | 218 kts | 91° |
| 2026-04-23 04:39 | 34.99506 | -108.71308 | 15789 ft | 218 kts | 90° |
| 2026-04-23 04:39 | 34.99569 | -108.69457 | 15788 ft | 219 kts | 91° |
| 2026-04-23 04:39 | 34.99631 | -108.67606 | 15789 ft | 219 kts | 91° |
| 2026-04-23 04:39 | 34.99693 | -108.65746 | 15790 ft | 219 kts | 91° |
| 2026-04-23 04:40 | 34.99755 | -108.63880 | 15790 ft | 221 kts | 91° |
| 2026-04-23 04:40 | 34.99815 | -108.62011 | 15790 ft | 221 kts | 91° |
| 2026-04-23 04:40 | 34.99877 | -108.60141 | 15786 ft | 221 kts | 91° |
| 2026-04-23 04:40 | 34.99937 | -108.58272 | 15793 ft | 221 kts | 91° |
| 2026-04-23 04:41 | 34.99997 | -108.56396 | 15793 ft | 221 kts | 90° |
| 2026-04-23 04:41 | 35.00058 | -108.54524 | 15794 ft | 221 kts | 91° |
| 2026-04-23 04:41 | 35.00118 | -108.52650 | 15794 ft | 221 kts | 91° |
| 2026-04-23 04:41 | 35.00178 | -108.50778 | 15792 ft | 221 kts | 91° |
| 2026-04-23 04:42 | 35.00237 | -108.48909 | 15788 ft | 221 kts | 91° |
| 2026-04-23 04:42 | 35.00296 | -108.47034 | 15793 ft | 221 kts | 91° |
| 2026-04-23 04:42 | 35.00355 | -108.45164 | 15794 ft | 221 kts | 91° |
| 2026-04-23 04:42 | 35.00413 | -108.43294 | 15803 ft | 221 kts | 91° |
| 2026-04-23 04:43 | 35.00471 | -108.41445 | 15791 ft | 221 kts | 92° |
| 2026-04-23 04:43 | 35.00530 | -108.39548 | 15791 ft | 221 kts | 91° |
| 2026-04-23 04:43 | 35.00587 | -108.37696 | 15793 ft | 221 kts | 91° |
| 2026-04-23 04:43 | 35.00644 | -108.35822 | 15790 ft | 221 kts | 91° |
| 2026-04-23 04:44 | 35.00701 | -108.33948 | 15790 ft | 221 kts | 91° |
| 2026-04-23 04:44 | 35.00758 | -108.32071 | 15789 ft | 221 kts | 91° |
| 2026-04-23 04:44 | 35.00814 | -108.30198 | 15790 ft | 221 kts | 91° |
| 2026-04-23 04:44 | 35.00871 | -108.28316 | 15787 ft | 222 kts | 91° |
| 2026-04-23 04:45 | 35.00927 | -108.26440 | 15788 ft | 221 kts | 91° |
| 2026-04-23 04:45 | 35.00983 | -108.24563 | 15789 ft | 221 kts | 92° |
| 2026-04-23 04:45 | 35.01038 | -108.22687 | 15789 ft | 221 kts | 92° |
| 2026-04-23 04:45 | 35.01094 | -108.20811 | 15789 ft | 221 kts | 92° |
| 2026-04-23 04:46 | 35.01149 | -108.18936 | 15790 ft | 221 kts | 92° |
| 2026-04-23 04:46 | 35.01203 | -108.17062 | 15792 ft | 221 kts | 92° |
| 2026-04-23 04:46 | 35.01257 | -108.15184 | 15790 ft | 221 kts | 92° |
| 2026-04-23 04:46 | 35.01311 | -108.13307 | 15791 ft | 221 kts | 92° |
| 2026-04-23 04:47 | 35.01365 | -108.11428 | 15792 ft | 222 kts | 92° |
| 2026-04-23 04:47 | 35.01418 | -108.09571 | 15790 ft | 222 kts | 92° |
| 2026-04-23 04:47 | 35.01471 | -108.07688 | 15788 ft | 222 kts | 91° |
| 2026-04-23 04:47 | 35.01524 | -108.05812 | 15794 ft | 221 kts | 92° |
| 2026-04-23 04:48 | 35.01577 | -108.03940 | 15794 ft | 221 kts | 92° |
| 2026-04-23 04:48 | 35.01630 | -108.02064 | 15789 ft | 221 kts | 92° |
| 2026-04-23 04:48 | 35.01682 | -108.00191 | 15791 ft | 221 kts | 92° |
| 2026-04-23 04:48 | 35.01733 | -107.98327 | 15787 ft | 219 kts | 92° |
| 2026-04-23 04:49 | 35.01783 | -107.96463 | 15790 ft | 220 kts | 92° |
| 2026-04-23 04:49 | 35.01834 | -107.94588 | 15780 ft | 222 kts | 92° |
| 2026-04-23 04:49 | 35.01885 | -107.92707 | 15777 ft | 222 kts | 92° |
| 2026-04-23 04:49 | 35.01936 | -107.90833 | 15783 ft | 221 kts | 92° |
| 2026-04-23 04:50 | 35.01986 | -107.88961 | 15785 ft | 221 kts | 92° |
| 2026-04-23 04:50 | 35.02036 | -107.87087 | 15781 ft | 221 kts | 92° |
| 2026-04-23 04:50 | 35.02086 | -107.85216 | 15780 ft | 221 kts | 92° |
| 2026-04-23 04:50 | 35.02135 | -107.83340 | 15781 ft | 221 kts | 92° |
| 2026-04-23 04:51 | 35.02184 | -107.81469 | 15780 ft | 221 kts | 92° |
| 2026-04-23 04:51 | 35.02233 | -107.79591 | 15780 ft | 221 kts | 92° |
| 2026-04-23 04:51 | 35.02281 | -107.77737 | 15778 ft | 221 kts | 92° |
| 2026-04-23 04:51 | 35.02329 | -107.75867 | 15780 ft | 220 kts | 92° |
| 2026-04-23 04:52 | 35.02377 | -107.73998 | 15774 ft | 220 kts | 91° |
| 2026-04-23 04:52 | 35.02424 | -107.72135 | 15774 ft | 220 kts | 91° |
| 2026-04-23 04:52 | 35.02471 | -107.70270 | 15773 ft | 220 kts | 92° |
| 2026-04-23 04:52 | 35.02518 | -107.68408 | 15771 ft | 219 kts | 92° |
| 2026-04-23 04:53 | 35.02565 | -107.66565 | 15776 ft | 218 kts | 91° |
| 2026-04-23 04:53 | 35.02611 | -107.64726 | 15782 ft | 218 kts | 92° |
| 2026-04-23 04:53 | 35.02655 | -107.62878 | 15785 ft | 218 kts | 91° |
| 2026-04-23 04:53 | 35.02700 | -107.61030 | 15783 ft | 218 kts | 91° |
| 2026-04-23 04:54 | 35.02745 | -107.59178 | 15782 ft | 219 kts | 91° |
| 2026-04-23 04:54 | 35.02790 | -107.57320 | 15781 ft | 219 kts | 91° |
| 2026-04-23 04:54 | 35.02835 | -107.55460 | 15780 ft | 219 kts | 92° |
| 2026-04-23 04:54 | 35.02880 | -107.53603 | 15781 ft | 219 kts | 92° |
| 2026-04-23 04:55 | 35.02923 | -107.51745 | 15781 ft | 219 kts | 92° |
| 2026-04-23 04:55 | 35.02967 | -107.49886 | 15779 ft | 219 kts | 92° |
| 2026-04-23 04:55 | 35.03011 | -107.48029 | 15778 ft | 218 kts | 92° |
| 2026-04-23 04:55 | 35.03054 | -107.46178 | 15771 ft | 218 kts | 92° |
| 2026-04-23 04:56 | 35.03097 | -107.44324 | 15772 ft | 219 kts | 92° |
| 2026-04-23 04:56 | 35.03140 | -107.42471 | 15771 ft | 219 kts | 92° |
| 2026-04-23 04:56 | 35.03182 | -107.40614 | 15772 ft | 219 kts | 92° |
| 2026-04-23 04:56 | 35.03224 | -107.38757 | 15763 ft | 218 kts | 92° |
| 2026-04-23 04:57 | 35.03265 | -107.36913 | 15762 ft | 217 kts | 92° |
| 2026-04-23 04:57 | 35.03306 | -107.35071 | 15760 ft | 217 kts | 92° |
| 2026-04-23 04:57 | 35.03347 | -107.33238 | 15761 ft | 216 kts | 92° |
| 2026-04-23 04:57 | 35.03387 | -107.31403 | 15752 ft | 216 kts | 92° |
| 2026-04-23 04:58 | 35.03428 | -107.29572 | 15753 ft | 216 kts | 92° |
| 2026-04-23 04:58 | 35.03468 | -107.27748 | 15755 ft | 215 kts | 92° |
| 2026-04-23 04:58 | 35.03507 | -107.25923 | 15757 ft | 215 kts | 92° |
| 2026-04-23 04:58 | 35.03546 | -107.24119 | 15757 ft | 216 kts | 92° |
| 2026-04-23 04:59 | 35.03584 | -107.22287 | 15755 ft | 216 kts | 92° |
| 2026-04-23 04:59 | 35.03624 | -107.20452 | 15755 ft | 216 kts | 92° |
| 2026-04-23 04:59 | 35.03662 | -107.18622 | 15747 ft | 215 kts | 92° |
| 2026-04-23 04:59 | 35.03700 | -107.16793 | 15747 ft | 216 kts | 92° |
| 2026-04-23 05:00 | 35.03739 | -107.14965 | 15749 ft | 215 kts | 92° |
| 2026-04-23 05:00 | 35.03776 | -107.13140 | 15751 ft | 216 kts | 93° |
| 2026-04-23 05:00 | 35.03812 | -107.11311 | 15746 ft | 216 kts | 94° |
| 2026-04-23 05:00 | 35.03849 | -107.09479 | 15750 ft | 216 kts | 92° |
| 2026-04-23 05:01 | 35.03887 | -107.07652 | 15751 ft | 215 kts | 92° |
| 2026-04-23 05:01 | 35.03924 | -107.05824 | 15749 ft | 215 kts | 92° |
| 2026-04-23 05:01 | 35.03960 | -107.04003 | 15739 ft | 214 kts | 92° |
| 2026-04-23 05:01 | 35.03995 | -107.02191 | 15742 ft | 212 kts | 92° |
| 2026-04-23 05:02 | 35.04030 | -107.00395 | 15744 ft | 211 kts | 92° |
| 2026-04-23 05:02 | 35.04064 | -106.98609 | 15737 ft | 210 kts | 92° |
| 2026-04-23 05:02 | 35.04099 | -106.96836 | 15736 ft | 208 kts | 93° |
| 2026-04-23 05:02 | 35.04133 | -106.95072 | 15733 ft | 207 kts | 94° |
| 2026-04-23 05:03 | 35.04155 | -106.93911 | 15739 ft | 207 kts | 94° |
| 2026-04-23 05:03 | 35.04188 | -106.92161 | 15739 ft | 206 kts | 94° |
| 2026-04-23 05:03 | 35.04220 | -106.90415 | 15740 ft | 206 kts | 94° |
| 2026-04-23 05:03 | 35.04262 | -106.88100 | 15740 ft | 206 kts | 94° |
| 2026-04-23 05:04 | 35.04295 | -106.86353 | 15953 ft | 206 kts | 94° |
| 2026-04-23 05:04 | 35.04327 | -106.84609 | 15959 ft | 205 kts | 94° |
| 2026-04-23 05:04 | 35.04358 | -106.82872 | 15964 ft | 205 kts | 94° |
| 2026-04-23 05:04 | 35.04575 | -106.81146 | 15961 ft | 208 kts | 73° |
| 2026-04-23 05:05 | 35.04967 | -106.80052 | 15972 ft | 208 kts | 66° |
| 2026-04-23 05:05 | 35.05576 | -106.78448 | 15979 ft | 208 kts | 67° |
| 2026-04-23 05:05 | 35.06169 | -106.76862 | 15973 ft | 208 kts | 67° |
| 2026-04-23 05:05 | 35.06770 | -106.75255 | 15979 ft | 208 kts | 67° |
| 2026-04-23 05:06 | 35.07370 | -106.73648 | 15989 ft | 208 kts | 66° |
| 2026-04-23 05:06 | 35.07973 | -106.72038 | 15992 ft | 209 kts | 66° |
| 2026-04-23 05:06 | 35.08577 | -106.70422 | 15975 ft | 210 kts | 66° |
| 2026-04-23 05:06 | 35.09181 | -106.68800 | 15977 ft | 210 kts | 68° |
| 2026-04-23 05:07 | 35.09786 | -106.67180 | 15969 ft | 210 kts | 68° |
| 2026-04-23 05:07 | 35.10391 | -106.65561 | 15974 ft | 210 kts | 68° |
| 2026-04-23 05:07 | 35.10994 | -106.63944 | 15974 ft | 210 kts | 67° |
| 2026-04-23 05:07 | 35.11598 | -106.62323 | 15969 ft | 210 kts | 67° |
| 2026-04-23 05:08 | 35.12202 | -106.60702 | 15977 ft | 210 kts | 68° |
| 2026-04-23 05:08 | 35.12806 | -106.59080 | 15973 ft | 210 kts | 68° |
| 2026-04-23 05:08 | 35.13411 | -106.57455 | 15968 ft | 210 kts | 68° |
| 2026-04-23 05:08 | 35.14015 | -106.55831 | 15958 ft | 210 kts | 68° |
| 2026-04-23 05:09 | 35.14620 | -106.54206 | 15951 ft | 210 kts | 68° |
| 2026-04-23 05:09 | 35.15216 | -106.52602 | 15942 ft | 210 kts | 67° |
| 2026-04-23 05:09 | 35.15820 | -106.50975 | 15758 ft | 210 kts | 67° |
| 2026-04-23 05:09 | 35.16423 | -106.49350 | 15760 ft | 210 kts | 68° |
| 2026-04-23 05:10 | 35.17026 | -106.47723 | 15764 ft | 210 kts | 68° |
| 2026-04-23 05:10 | 35.17632 | -106.46090 | 15762 ft | 212 kts | 68° |
| 2026-04-23 05:10 | 35.18243 | -106.44442 | 15763 ft | 213 kts | 68° |
| 2026-04-23 05:10 | 35.18855 | -106.42787 | 15761 ft | 215 kts | 67° |
| 2026-04-23 05:11 | 35.19468 | -106.41131 | 15760 ft | 211 kts | 67° |
| 2026-04-23 05:11 | 35.20074 | -106.39500 | 15752 ft | 211 kts | 67° |
| 2026-04-23 05:11 | 35.20677 | -106.37868 | 15755 ft | 209 kts | 68° |
| 2026-04-23 05:11 | 35.21275 | -106.36249 | 15753 ft | 209 kts | 68° |
| 2026-04-23 05:12 | 35.21874 | -106.34629 | 15777 ft | 209 kts | 68° |
| 2026-04-23 05:12 | 35.22476 | -106.32997 | 15769 ft | 211 kts | 67° |
| 2026-04-23 05:12 | 35.23082 | -106.31360 | 15767 ft | 212 kts | 67° |
| 2026-04-23 05:12 | 35.23687 | -106.29714 | 15772 ft | 212 kts | 67° |
| 2026-04-23 05:13 | 35.24297 | -106.28065 | 15752 ft | 213 kts | 67° |
| 2026-04-23 05:13 | 35.24906 | -106.26412 | 15755 ft | 214 kts | 67° |
| 2026-04-23 05:13 | 35.25510 | -106.24773 | 15754 ft | 214 kts | 67° |
| 2026-04-23 05:14 | 35.26739 | -106.21435 | 15753 ft | 216 kts | 66° |
| 2026-04-23 05:14 | 35.27353 | -106.19762 | 15758 ft | 216 kts | 67° |
| 2026-04-23 05:14 | 35.27970 | -106.18087 | 15768 ft | 216 kts | 67° |
| 2026-04-23 05:14 | 35.28585 | -106.16413 | 15779 ft | 216 kts | 67° |
| 2026-04-23 05:15 | 35.29200 | -106.14738 | 15780 ft | 216 kts | 67° |
| 2026-04-23 05:15 | 35.29813 | -106.13068 | 15783 ft | 215 kts | 67° |
| 2026-04-23 05:15 | 35.30426 | -106.11397 | 15794 ft | 215 kts | 67° |
| 2026-04-23 05:15 | 35.31039 | -106.09726 | 15798 ft | 215 kts | 67° |
| 2026-04-23 05:16 | 35.31651 | -106.08056 | 15806 ft | 215 kts | 67° |
| 2026-04-23 05:16 | 35.32262 | -106.06388 | 15813 ft | 215 kts | 67° |
| 2026-04-23 05:16 | 35.32873 | -106.04718 | 15820 ft | 215 kts | 67° |
| 2026-04-23 05:16 | 35.33484 | -106.03048 | 15818 ft | 215 kts | 66° |
| 2026-04-23 05:17 | 35.34091 | -106.01385 | 15824 ft | 214 kts | 67° |
| 2026-04-23 05:17 | 35.34701 | -105.99718 | 15827 ft | 215 kts | 67° |
| 2026-04-23 05:17 | 35.35315 | -105.98039 | 15832 ft | 217 kts | 67° |
| 2026-04-23 05:17 | 35.35930 | -105.96355 | 15828 ft | 217 kts | 67° |
| 2026-04-23 05:18 | 35.36545 | -105.94668 | 15835 ft | 217 kts | 67° |
| 2026-04-23 05:18 | 35.37162 | -105.92977 | 15769 ft | 217 kts | 66° |
| 2026-04-23 05:18 | 35.37778 | -105.91287 | 15766 ft | 218 kts | 66° |
| 2026-04-23 05:18 | 35.38396 | -105.89590 | 15766 ft | 218 kts | 67° |
| 2026-04-23 05:19 | 35.39006 | -105.87916 | 15770 ft | 218 kts | 67° |
| 2026-04-23 05:19 | 35.39624 | -105.86221 | 15760 ft | 218 kts | 67° |
| 2026-04-23 05:19 | 35.40242 | -105.84522 | 15757 ft | 218 kts | 67° |
| 2026-04-23 05:19 | 35.40860 | -105.82823 | 15759 ft | 219 kts | 67° |
| 2026-04-23 05:20 | 35.41480 | -105.81113 | 15763 ft | 219 kts | 67° |
| 2026-04-23 05:20 | 35.42101 | -105.79402 | 15761 ft | 220 kts | 67° |
| 2026-04-23 05:20 | 35.42722 | -105.77693 | 15756 ft | 219 kts | 67° |
| 2026-04-23 05:20 | 35.43339 | -105.75990 | 15759 ft | 219 kts | 67° |
| 2026-04-23 05:21 | 35.43959 | -105.74281 | 15748 ft | 219 kts | 67° |
| 2026-04-23 05:21 | 35.44577 | -105.72574 | 15748 ft | 219 kts | 67° |
| 2026-04-23 05:21 | 35.45196 | -105.70867 | 15749 ft | 219 kts | 67° |
| 2026-04-23 05:21 | 35.45816 | -105.69152 | 15750 ft | 220 kts | 67° |
| 2026-04-23 05:22 | 35.46437 | -105.67437 | 15760 ft | 221 kts | 68° |
| 2026-04-23 05:22 | 35.47062 | -105.65710 | 15747 ft | 220 kts | 67° |
| 2026-04-23 05:22 | 35.47684 | -105.63992 | 15748 ft | 221 kts | 68° |
| 2026-04-23 05:22 | 35.48297 | -105.62292 | 15744 ft | 221 kts | 68° |
| 2026-04-23 05:23 | 35.48918 | -105.60569 | 15738 ft | 221 kts | 68° |
| 2026-04-23 05:23 | 35.49542 | -105.58838 | 15737 ft | 222 kts | 68° |
| 2026-04-23 05:23 | 35.50167 | -105.57107 | 15743 ft | 223 kts | 68° |
| 2026-04-23 05:23 | 35.50796 | -105.55363 | 15743 ft | 223 kts | 68° |
| 2026-04-23 05:24 | 35.51423 | -105.53621 | 15751 ft | 223 kts | 68° |
| 2026-04-23 05:24 | 35.52047 | -105.51881 | 15766 ft | 222 kts | 68° |
| 2026-04-23 05:24 | 35.52676 | -105.50137 | 15772 ft | 224 kts | 68° |
| 2026-04-23 05:24 | 35.53305 | -105.48391 | 15769 ft | 223 kts | 68° |
| 2026-04-23 05:25 | 35.53929 | -105.46654 | 15783 ft | 222 kts | 68° |
| 2026-04-23 05:25 | 35.54554 | -105.44914 | 15800 ft | 223 kts | 68° |
| 2026-04-23 05:25 | 35.55180 | -105.43168 | 15807 ft | 223 kts | 68° |
| 2026-04-23 05:25 | 35.55806 | -105.41429 | 15817 ft | 222 kts | 68° |
| 2026-04-23 05:26 | 35.56419 | -105.39719 | 15829 ft | 221 kts | 68° |
| 2026-04-23 05:26 | 35.57038 | -105.37990 | 15844 ft | 221 kts | 68° |
| 2026-04-23 05:26 | 35.57658 | -105.36257 | 15857 ft | 222 kts | 68° |
| 2026-04-23 05:26 | 35.58279 | -105.34523 | 15864 ft | 222 kts | 68° |
| 2026-04-23 05:27 | 35.58900 | -105.32788 | 15880 ft | 222 kts | 68° |
| 2026-04-23 05:27 | 35.59520 | -105.31054 | 15891 ft | 221 kts | 68° |
| 2026-04-23 05:27 | 35.60139 | -105.29322 | 15907 ft | 222 kts | 68° |
| 2026-04-23 05:27 | 35.60755 | -105.27596 | 15911 ft | 220 kts | 68° |
| 2026-04-23 05:28 | 35.61367 | -105.25882 | 15922 ft | 218 kts | 68° |
| 2026-04-23 05:28 | 35.61976 | -105.24179 | 15944 ft | 217 kts | 68° |
| 2026-04-23 05:28 | 35.62584 | -105.22475 | 15944 ft | 218 kts | 68° |
| 2026-04-23 05:28 | 35.63190 | -105.20773 | 15944 ft | 218 kts | 68° |
| 2026-04-23 05:29 | 35.63798 | -105.19067 | 15943 ft | 218 kts | 68° |
| 2026-04-23 05:29 | 35.64404 | -105.17364 | 15943 ft | 218 kts | 68° |
| 2026-04-23 05:29 | 35.65023 | -105.15661 | 15939 ft | 219 kts | 63° |
| 2026-04-23 05:29 | 35.65961 | -105.14208 | 15932 ft | 217 kts | 38° |
| 2026-04-23 05:30 | 35.67223 | -105.13257 | 15937 ft | 210 kts | 15° |
| 2026-04-23 05:30 | 35.68609 | -105.12821 | 15938 ft | 204 kts | 4° |
| 2026-04-23 05:30 | 35.70003 | -105.12464 | 15939 ft | 204 kts | 4° |
| 2026-04-23 05:30 | 35.71394 | -105.12102 | 15939 ft | 205 kts | 4° |
| 2026-04-23 05:31 | 35.72791 | -105.11740 | 15942 ft | 205 kts | 4° |
| 2026-04-23 05:31 | 35.74183 | -105.11380 | 15940 ft | 205 kts | 5° |
| 2026-04-23 05:31 | 35.75575 | -105.11019 | 15926 ft | 204 kts | 4° |
| 2026-04-23 05:31 | 35.76965 | -105.10659 | 15913 ft | 204 kts | 4° |
| 2026-04-23 05:32 | 35.78357 | -105.10298 | 15896 ft | 204 kts | 4° |
| 2026-04-23 05:32 | 35.79748 | -105.09936 | 15897 ft | 204 kts | 4° |
| 2026-04-23 05:32 | 35.81139 | -105.09575 | 15884 ft | 205 kts | 4° |
| 2026-04-23 05:32 | 35.82538 | -105.09212 | 15865 ft | 205 kts | 4° |
| 2026-04-23 05:33 | 35.83935 | -105.08849 | 15849 ft | 205 kts | 4° |
| 2026-04-23 05:33 | 35.85313 | -105.08491 | 15836 ft | 205 kts | 4° |
| 2026-04-23 05:33 | 35.86729 | -105.08124 | 15683 ft | 205 kts | 4° |
| 2026-04-23 05:33 | 35.88110 | -105.07765 | 15682 ft | 206 kts | 4° |
| 2026-04-23 05:34 | 35.89514 | -105.07399 | 15687 ft | 206 kts | 4° |
| 2026-04-23 05:34 | 35.90918 | -105.07033 | 15670 ft | 207 kts | 4° |
| 2026-04-23 05:34 | 35.92326 | -105.06667 | 15671 ft | 207 kts | 4° |
| 2026-04-23 05:34 | 35.93734 | -105.06300 | 15669 ft | 207 kts | 4° |
| 2026-04-23 05:35 | 35.95142 | -105.05933 | 15673 ft | 207 kts | 4° |
| 2026-04-23 05:35 | 35.96546 | -105.05567 | 15672 ft | 206 kts | 4° |
| 2026-04-23 05:35 | 35.97948 | -105.05202 | 15672 ft | 206 kts | 4° |
| 2026-04-23 05:35 | 35.99350 | -105.04837 | 15676 ft | 206 kts | 4° |
| 2026-04-23 05:36 | 36.00749 | -105.04472 | 15677 ft | 206 kts | 4° |
| 2026-04-23 05:36 | 36.02150 | -105.04107 | 15675 ft | 206 kts | 4° |
| 2026-04-23 05:36 | 36.03551 | -105.03740 | 15675 ft | 206 kts | 4° |
| 2026-04-23 05:36 | 36.04956 | -105.03374 | 15675 ft | 207 kts | 4° |
| 2026-04-23 05:37 | 36.06371 | -105.03004 | 15673 ft | 207 kts | 4° |
| 2026-04-23 05:37 | 36.07782 | -105.02635 | 15674 ft | 207 kts | 4° |
| 2026-04-23 05:37 | 36.09196 | -105.02265 | 15676 ft | 208 kts | 4° |
| 2026-04-23 05:37 | 36.10610 | -105.01895 | 15677 ft | 208 kts | 4° |
| 2026-04-23 05:38 | 36.12023 | -105.01526 | 15675 ft | 207 kts | 4° |
| 2026-04-23 05:38 | 36.13434 | -105.01157 | 15676 ft | 207 kts | 4° |
| 2026-04-23 05:38 | 36.14848 | -105.00787 | 15680 ft | 208 kts | 4° |
| 2026-04-23 05:38 | 36.16248 | -105.00416 | 15682 ft | 204 kts | 4° |
| 2026-04-23 05:39 | 36.17607 | -105.00061 | 15709 ft | 202 kts | 4° |
| 2026-04-23 05:39 | 36.18995 | -104.99701 | 15683 ft | 205 kts | 4° |
| 2026-04-23 05:39 | 36.20398 | -104.99334 | 15681 ft | 207 kts | 4° |
| 2026-04-23 05:39 | 36.21810 | -104.98963 | 15679 ft | 209 kts | 4° |
| 2026-04-23 05:40 | 36.23230 | -104.98589 | 15682 ft | 209 kts | 4° |
| 2026-04-23 05:40 | 36.24655 | -104.98215 | 15677 ft | 209 kts | 4° |
| 2026-04-23 05:40 | 36.26078 | -104.97841 | 15678 ft | 209 kts | 4° |
| 2026-04-23 05:40 | 36.27499 | -104.97468 | 15678 ft | 208 kts | 4° |
| 2026-04-23 05:41 | 36.28917 | -104.97095 | 15695 ft | 208 kts | 4° |
| 2026-04-23 05:41 | 36.30344 | -104.96721 | 15688 ft | 208 kts | 4° |
| 2026-04-23 05:41 | 36.31759 | -104.96347 | 15686 ft | 208 kts | 3° |
| 2026-04-23 05:41 | 36.33180 | -104.95975 | 15690 ft | 209 kts | 3° |
| 2026-04-23 05:42 | 36.34608 | -104.95599 | 15693 ft | 210 kts | 4° |
| 2026-04-23 05:42 | 36.36018 | -104.95226 | 15681 ft | 209 kts | 3° |
| 2026-04-23 05:42 | 36.37437 | -104.94852 | 15684 ft | 208 kts | 3° |
| 2026-04-23 05:42 | 36.38853 | -104.94479 | 15686 ft | 208 kts | 3° |
| 2026-04-23 05:43 | 36.40268 | -104.94107 | 15686 ft | 208 kts | 3° |
| 2026-04-23 05:43 | 36.41682 | -104.93733 | 15684 ft | 208 kts | 3° |
| 2026-04-23 05:43 | 36.43091 | -104.93363 | 15690 ft | 207 kts | 3° |
| 2026-04-23 05:43 | 36.44497 | -104.92984 | 15680 ft | 207 kts | 4° |
| 2026-04-23 05:44 | 36.45903 | -104.92611 | 15658 ft | 206 kts | 3° |
| 2026-04-23 05:44 | 36.47310 | -104.92248 | 15656 ft | 206 kts | 4° |
| 2026-04-23 05:44 | 36.48714 | -104.91878 | 15654 ft | 207 kts | 4° |
| 2026-04-23 05:44 | 36.50125 | -104.91506 | 15656 ft | 207 kts | 4° |
| 2026-04-23 05:45 | 36.51534 | -104.91133 | 15662 ft | 207 kts | 4° |
| 2026-04-23 05:45 | 36.52948 | -104.90759 | 15655 ft | 208 kts | 5° |
| 2026-04-23 05:45 | 36.54366 | -104.90383 | 15670 ft | 209 kts | 4° |
| 2026-04-23 05:45 | 36.55798 | -104.90005 | 15671 ft | 211 kts | 4° |
| 2026-04-23 05:46 | 36.57231 | -104.89622 | 15664 ft | 209 kts | 4° |
| 2026-04-23 05:46 | 36.58634 | -104.89252 | 15668 ft | 208 kts | 4° |
| 2026-04-23 05:46 | 36.60049 | -104.88879 | 15671 ft | 207 kts | 4° |
| 2026-04-23 05:46 | 36.61453 | -104.88506 | 15676 ft | 206 kts | 4° |
| 2026-04-23 05:47 | 36.62860 | -104.88133 | 15691 ft | 208 kts | 4° |
| 2026-04-23 05:47 | 36.64278 | -104.87758 | 15693 ft | 208 kts | 4° |
| 2026-04-23 05:47 | 36.65695 | -104.87381 | 15698 ft | 207 kts | 4° |
| 2026-04-23 05:47 | 36.67104 | -104.87005 | 15710 ft | 207 kts | 4° |
| 2026-04-23 05:48 | 36.68515 | -104.86632 | 15708 ft | 206 kts | 4° |
| 2026-04-23 05:48 | 36.69919 | -104.86260 | 15715 ft | 207 kts | 4° |
| 2026-04-23 05:48 | 36.71325 | -104.85886 | 15720 ft | 207 kts | 4° |
| 2026-04-23 05:48 | 36.72734 | -104.85511 | 15721 ft | 206 kts | 4° |
| 2026-04-23 05:49 | 36.74140 | -104.85138 | 15722 ft | 206 kts | 3° |
| 2026-04-23 05:49 | 36.75543 | -104.84764 | 15726 ft | 206 kts | 4° |
| 2026-04-23 05:49 | 36.76947 | -104.84391 | 15723 ft | 206 kts | 4° |
| 2026-04-23 05:49 | 36.78351 | -104.84017 | 15741 ft | 207 kts | 2° |
| 2026-04-23 05:50 | 36.79767 | -104.83640 | 15737 ft | 208 kts | 3° |
| 2026-04-23 05:50 | 36.81186 | -104.83262 | 15734 ft | 208 kts | 3° |
| 2026-04-23 05:50 | 36.82603 | -104.82884 | 15735 ft | 209 kts | 3° |
| 2026-04-23 05:50 | 36.84022 | -104.82507 | 15726 ft | 207 kts | 2° |
| 2026-04-23 05:51 | 36.85432 | -104.82127 | 15720 ft | 208 kts | 2° |
| 2026-04-23 05:51 | 36.86849 | -104.81751 | 15724 ft | 207 kts | 2° |
| 2026-04-23 05:51 | 36.88257 | -104.81374 | 15724 ft | 207 kts | 3° |
| 2026-04-23 05:51 | 36.89670 | -104.80999 | 15720 ft | 207 kts | 3° |
| 2026-04-23 05:52 | 36.91084 | -104.80619 | 15721 ft | 208 kts | 3° |
| 2026-04-23 05:52 | 36.92504 | -104.80242 | 15716 ft | 209 kts | 4° |
| 2026-04-23 05:52 | 36.93924 | -104.79861 | 15709 ft | 208 kts | 3° |
| 2026-04-23 05:52 | 36.95342 | -104.79482 | 15705 ft | 209 kts | 3° |
| 2026-04-23 05:53 | 36.96742 | -104.79107 | 15698 ft | 208 kts | 4° |
| 2026-04-23 05:53 | 36.98154 | -104.78728 | 15689 ft | 208 kts | 3° |
| 2026-04-23 05:53 | 36.99568 | -104.78350 | 15688 ft | 208 kts | 3° |
| 2026-04-23 05:53 | 37.00985 | -104.77971 | 15677 ft | 208 kts | 3° |
| 2026-04-23 05:54 | 37.02399 | -104.77592 | 15685 ft | 208 kts | 3° |
| 2026-04-23 05:54 | 37.03817 | -104.77211 | 15673 ft | 208 kts | 3° |
| 2026-04-23 05:54 | 37.04753 | -104.76960 | 15671 ft | 207 kts | 3° |
| 2026-04-23 05:54 | 37.06165 | -104.76582 | 15666 ft | 208 kts | 3° |
| 2026-04-23 05:55 | 37.07583 | -104.76201 | 15658 ft | 208 kts | 3° |
| 2026-04-23 05:55 | 37.08995 | -104.75822 | 15660 ft | 207 kts | 3° |
| 2026-04-23 05:55 | 37.10404 | -104.75443 | 15660 ft | 207 kts | 3° |
| 2026-04-23 05:55 | 37.11814 | -104.75066 | 15663 ft | 207 kts | 3° |
| 2026-04-23 05:56 | 37.13224 | -104.74686 | 15668 ft | 207 kts | 3° |
| 2026-04-23 05:56 | 37.14627 | -104.74309 | 15672 ft | 206 kts | 4° |
| 2026-04-23 05:56 | 37.16029 | -104.73931 | 15678 ft | 206 kts | 3° |
| 2026-04-23 05:56 | 37.17414 | -104.73560 | 15672 ft | 206 kts | 3° |
| 2026-04-23 05:57 | 37.18811 | -104.73183 | 15676 ft | 205 kts | 3° |
| 2026-04-23 05:57 | 37.20204 | -104.72807 | 15680 ft | 205 kts | 3° |
| 2026-04-23 05:57 | 37.21600 | -104.72433 | 15684 ft | 206 kts | 3° |
| 2026-04-23 05:57 | 37.22999 | -104.72056 | 15684 ft | 205 kts | 3° |
| 2026-04-23 05:58 | 37.24400 | -104.71677 | 15685 ft | 206 kts | 3° |
| 2026-04-23 05:58 | 37.25799 | -104.71300 | 15691 ft | 206 kts | 2° |
| 2026-04-23 05:58 | 37.27200 | -104.70922 | 15651 ft | 206 kts | 2° |
| 2026-04-23 05:58 | 37.28599 | -104.70545 | 15647 ft | 205 kts | 2° |
| 2026-04-23 05:59 | 37.29995 | -104.70167 | 15649 ft | 204 kts | 2° |
| 2026-04-23 05:59 | 37.31384 | -104.69792 | 15651 ft | 204 kts | 2° |
| 2026-04-23 05:59 | 37.32775 | -104.69417 | 15651 ft | 204 kts | 2° |
| 2026-04-23 05:59 | 37.34167 | -104.69041 | 15654 ft | 205 kts | 2° |
| 2026-04-23 06:00 | 37.35562 | -104.68664 | 15656 ft | 205 kts | 2° |
| 2026-04-23 06:00 | 37.36958 | -104.68287 | 15640 ft | 205 kts | 2° |
| 2026-04-23 06:00 | 37.38362 | -104.67907 | 15637 ft | 206 kts | 2° |
| 2026-04-23 06:00 | 37.39758 | -104.67528 | 15638 ft | 205 kts | 2° |
| 2026-04-23 06:01 | 37.41150 | -104.67150 | 15641 ft | 204 kts | 2° |
| 2026-04-23 06:01 | 37.42529 | -104.66777 | 15642 ft | 205 kts | 2° |
| 2026-04-23 06:01 | 37.43921 | -104.66399 | 15636 ft | 204 kts | 2° |
| 2026-04-23 06:01 | 37.45311 | -104.66022 | 15635 ft | 204 kts | 2° |
| 2026-04-23 06:02 | 37.46696 | -104.65647 | 15627 ft | 204 kts | 2° |
| 2026-04-23 06:02 | 37.48080 | -104.65273 | 15627 ft | 204 kts | 2° |
| 2026-04-23 06:02 | 37.49466 | -104.64896 | 15627 ft | 204 kts | 2° |
| 2026-04-23 06:02 | 37.50849 | -104.64521 | 15610 ft | 203 kts | 2° |
| 2026-04-23 06:03 | 37.52235 | -104.64144 | 15605 ft | 203 kts | 2° |
| 2026-04-23 06:03 | 37.53622 | -104.63767 | 15604 ft | 204 kts | 2° |
| 2026-04-23 06:03 | 37.55010 | -104.63390 | 15603 ft | 204 kts | 2° |
| 2026-04-23 06:03 | 37.56400 | -104.63012 | 15597 ft | 205 kts | 2° |
| 2026-04-23 06:04 | 37.57792 | -104.62633 | 15599 ft | 205 kts | 2° |
| 2026-04-23 06:04 | 37.59182 | -104.62255 | 15594 ft | 205 kts | 2° |
| 2026-04-23 06:04 | 37.60574 | -104.61876 | 15599 ft | 204 kts | 2° |
| 2026-04-23 06:04 | 37.61966 | -104.61497 | 15596 ft | 205 kts | 2° |
| 2026-04-23 06:05 | 37.63362 | -104.61116 | 15594 ft | 205 kts | 2° |
| 2026-04-23 06:05 | 37.64753 | -104.60737 | 15595 ft | 204 kts | 2° |
| 2026-04-23 06:05 | 37.66144 | -104.60357 | 15594 ft | 205 kts | 2° |
| 2026-04-23 06:05 | 37.67538 | -104.59978 | 15594 ft | 205 kts | 2° |
| 2026-04-23 06:06 | 37.68912 | -104.59603 | 15596 ft | 205 kts | 2° |
| 2026-04-23 06:06 | 37.70303 | -104.59223 | 15597 ft | 204 kts | 2° |
| 2026-04-23 06:06 | 37.71696 | -104.58843 | 15597 ft | 205 kts | 2° |
| 2026-04-23 06:06 | 37.73092 | -104.58462 | 15597 ft | 205 kts | 2° |
| 2026-04-23 06:07 | 37.74488 | -104.58080 | 15594 ft | 206 kts | 2° |
| 2026-04-23 06:07 | 37.75888 | -104.57697 | 15584 ft | 205 kts | 2° |
| 2026-04-23 06:07 | 37.77284 | -104.57314 | 15585 ft | 205 kts | 2° |
| 2026-04-23 06:07 | 37.78680 | -104.56933 | 15587 ft | 205 kts | 2° |
| 2026-04-23 06:08 | 37.80078 | -104.56551 | 15588 ft | 206 kts | 2° |
| 2026-04-23 06:08 | 37.81480 | -104.56166 | 15587 ft | 206 kts | 2° |
| 2026-04-23 06:08 | 37.82881 | -104.55783 | 15587 ft | 206 kts | 2° |
| 2026-04-23 06:08 | 37.84275 | -104.55400 | 15649 ft | 203 kts | 2° |
| 2026-04-23 06:09 | 37.85639 | -104.55023 | 15760 ft | 198 kts | 1° |
| 2026-04-23 06:09 | 37.86986 | -104.54656 | 15775 ft | 199 kts | 1° |
| 2026-04-23 06:09 | 37.88348 | -104.54287 | 15778 ft | 201 kts | 1° |
| 2026-04-23 06:09 | 37.89721 | -104.53909 | 15780 ft | 203 kts | 1° |
| 2026-04-23 06:10 | 37.91103 | -104.53531 | 15778 ft | 203 kts | 3° |
| 2026-04-23 06:10 | 37.92463 | -104.53151 | 15784 ft | 203 kts | 2° |
| 2026-04-23 06:10 | 37.93849 | -104.52774 | 15781 ft | 204 kts | 2° |
| 2026-04-23 06:10 | 37.95241 | -104.52392 | 15775 ft | 204 kts | 2° |
| 2026-04-23 06:11 | 37.96630 | -104.52009 | 15760 ft | 204 kts | 2° |
| 2026-04-23 06:11 | 37.97996 | -104.51629 | 15798 ft | 200 kts | 2° |
| 2026-04-23 06:11 | 37.99357 | -104.51259 | 15812 ft | 202 kts | 3° |
| 2026-04-23 06:11 | 38.00732 | -104.50882 | 15824 ft | 203 kts | 3° |
| 2026-04-23 06:12 | 38.02113 | -104.50500 | 15832 ft | 204 kts | 3° |
| 2026-04-23 06:12 | 38.03496 | -104.50118 | 15830 ft | 203 kts | 3° |
| 2026-04-23 06:12 | 38.06241 | -104.49360 | 15842 ft | 200 kts | 3° |
| 2026-04-23 06:13 | 38.07595 | -104.48986 | 15852 ft | 199 kts | 2° |
| 2026-04-23 06:13 | 38.08944 | -104.48615 | 15860 ft | 198 kts | 2° |
| 2026-04-23 06:13 | 38.10289 | -104.48244 | 15868 ft | 198 kts | 2° |
| 2026-04-23 06:13 | 38.11628 | -104.47875 | 15874 ft | 197 kts | 2° |
| 2026-04-23 06:14 | 38.12966 | -104.47505 | 15879 ft | 197 kts | 2° |
| 2026-04-23 06:14 | 38.14301 | -104.47137 | 15885 ft | 196 kts | 2° |
| 2026-04-23 06:14 | 38.15634 | -104.46768 | 15895 ft | 196 kts | 2° |
| 2026-04-23 06:14 | 38.16969 | -104.46398 | 15903 ft | 196 kts | 2° |
| 2026-04-23 06:15 | 38.18298 | -104.46031 | 15911 ft | 196 kts | 2° |
| 2026-04-23 06:15 | 38.19630 | -104.45663 | 15916 ft | 196 kts | 2° |
| 2026-04-23 06:15 | 38.20963 | -104.45294 | 15920 ft | 196 kts | 2° |
| 2026-04-23 06:15 | 38.22291 | -104.44926 | 15919 ft | 195 kts | 2° |
| 2026-04-23 06:16 | 38.23626 | -104.44557 | 15923 ft | 196 kts | 3° |
| 2026-04-23 06:16 | 38.24943 | -104.44190 | 15923 ft | 196 kts | 3° |
| 2026-04-23 06:16 | 38.26292 | -104.43815 | 15923 ft | 196 kts | 3° |
| 2026-04-23 06:16 | 38.27605 | -104.43452 | 15923 ft | 196 kts | 3° |
| 2026-04-23 06:17 | 38.28934 | -104.43166 | 15916 ft | 189 kts | 351° |
| 2026-04-23 06:17 | 38.30215 | -104.43308 | 15912 ft | 187 kts | 347° |
| 2026-04-23 06:17 | 38.31526 | -104.43278 | 15917 ft | 190 kts | 352° |
| 2026-04-23 06:17 | 38.32845 | -104.43188 | 15919 ft | 190 kts | 353° |
| 2026-04-23 06:18 | 38.34167 | -104.43106 | 15918 ft | 189 kts | 352° |
| 2026-04-23 06:18 | 38.35484 | -104.43033 | 15919 ft | 190 kts | 352° |
| 2026-04-23 06:18 | 38.36803 | -104.42961 | 15916 ft | 190 kts | 352° |
| 2026-04-23 06:18 | 38.38121 | -104.42888 | 15909 ft | 190 kts | 352° |
| 2026-04-23 06:19 | 38.39441 | -104.42816 | 15903 ft | 190 kts | 352° |
| 2026-04-23 06:19 | 38.40760 | -104.42743 | 15896 ft | 190 kts | 352° |
| 2026-04-23 06:19 | 38.42081 | -104.42669 | 15888 ft | 190 kts | 352° |
| 2026-04-23 06:19 | 38.43397 | -104.42596 | 15881 ft | 189 kts | 352° |
| 2026-04-23 06:20 | 38.44713 | -104.42522 | 15872 ft | 189 kts | 352° |
| 2026-04-23 06:20 | 38.46026 | -104.42450 | 15866 ft | 190 kts | 353° |
| 2026-04-23 06:20 | 38.47355 | -104.42379 | 15862 ft | 191 kts | 352° |
| 2026-04-23 06:20 | 38.48688 | -104.42304 | 15850 ft | 193 kts | 352° |
| 2026-04-23 06:21 | 38.50028 | -104.42228 | 15845 ft | 193 kts | 352° |
| 2026-04-23 06:21 | 38.51367 | -104.42153 | 15837 ft | 193 kts | 352° |
| 2026-04-23 06:21 | 38.52707 | -104.42078 | 15830 ft | 193 kts | 352° |
| 2026-04-23 06:21 | 38.54048 | -104.42004 | 15821 ft | 193 kts | 353° |
| 2026-04-23 06:22 | 38.55388 | -104.41930 | 15811 ft | 193 kts | 353° |
| 2026-04-23 06:22 | 38.56730 | -104.41855 | 15803 ft | 193 kts | 353° |
| 2026-04-23 06:22 | 38.58070 | -104.41780 | 15795 ft | 192 kts | 353° |
| 2026-04-23 06:22 | 38.59412 | -104.41705 | 15787 ft | 193 kts | 353° |
| 2026-04-23 06:23 | 38.60737 | -104.41631 | 15783 ft | 193 kts | 353° |
| 2026-04-23 06:23 | 38.62078 | -104.41556 | 15774 ft | 193 kts | 353° |
| 2026-04-23 06:23 | 38.63419 | -104.41482 | 15767 ft | 193 kts | 353° |
| 2026-04-23 06:23 | 38.64763 | -104.41407 | 15756 ft | 193 kts | 352° |
| 2026-04-23 06:24 | 38.66106 | -104.41331 | 15760 ft | 193 kts | 352° |
| 2026-04-23 06:24 | 38.67455 | -104.41256 | 15852 ft | 193 kts | 353° |
| 2026-04-23 06:24 | 38.68801 | -104.41181 | 15858 ft | 194 kts | 353° |
| 2026-04-23 06:24 | 38.70149 | -104.41106 | 15856 ft | 194 kts | 353° |
| 2026-04-23 06:25 | 38.71497 | -104.41030 | 15867 ft | 194 kts | 353° |
| 2026-04-23 06:25 | 38.72842 | -104.40955 | 15863 ft | 193 kts | 353° |
| 2026-04-23 06:25 | 38.74182 | -104.40879 | 15874 ft | 193 kts | 353° |
| 2026-04-23 06:25 | 38.75526 | -104.40805 | 15893 ft | 194 kts | 353° |
| 2026-04-23 06:26 | 38.76875 | -104.40730 | 15903 ft | 195 kts | 353° |
| 2026-04-23 06:26 | 38.78234 | -104.40655 | 15917 ft | 196 kts | 353° |
| 2026-04-23 06:26 | 38.79605 | -104.40578 | 15923 ft | 198 kts | 353° |
| 2026-04-23 06:26 | 38.80986 | -104.40500 | 15932 ft | 199 kts | 353° |
| 2026-04-23 06:27 | 38.82368 | -104.40422 | 15945 ft | 199 kts | 353° |
| 2026-04-23 06:27 | 38.83754 | -104.40344 | 15953 ft | 200 kts | 353° |
| 2026-04-23 06:27 | 38.85142 | -104.40265 | 15961 ft | 200 kts | 353° |
| 2026-04-23 06:27 | 38.86533 | -104.40187 | 15964 ft | 200 kts | 353° |
| 2026-04-23 06:28 | 38.87924 | -104.40109 | 15973 ft | 200 kts | 353° |
| 2026-04-23 06:28 | 38.89314 | -104.40031 | 15978 ft | 200 kts | 353° |
| 2026-04-23 06:28 | 38.90707 | -104.39953 | 15979 ft | 200 kts | 353° |
| 2026-04-23 06:28 | 38.92105 | -104.39804 | 15982 ft | 204 kts | 360° |
| 2026-04-23 06:29 | 38.93511 | -104.39634 | 15973 ft | 201 kts | 354° |
| 2026-04-23 06:29 | 38.94905 | -104.39608 | 15934 ft | 201 kts | 349° |
| 2026-04-23 06:29 | 38.96324 | -104.39723 | 15698 ft | 208 kts | 345° |
| 2026-04-23 06:29 | 38.97782 | -104.39988 | 15396 ft | 214 kts | 340° |
| 2026-04-23 06:30 | 38.99230 | -104.40402 | 15085 ft | 210 kts | 335° |
| 2026-04-23 06:30 | 39.00595 | -104.40939 | 14812 ft | 201 kts | 330° |
| 2026-04-23 06:30 | 39.01866 | -104.41580 | 14567 ft | 191 kts | 326° |
| 2026-04-23 06:30 | 39.03025 | -104.42293 | 14338 ft | 184 kts | 322° |
| 2026-04-23 06:31 | 39.04115 | -104.43088 | 14103 ft | 178 kts | 317° |
| 2026-04-23 06:31 | 39.05134 | -104.43952 | 13870 ft | 173 kts | 314° |
| 2026-04-23 06:31 | 39.06078 | -104.44872 | 13649 ft | 168 kts | 310° |
| 2026-04-23 06:31 | 39.06951 | -104.45841 | 13414 ft | 164 kts | 307° |
| 2026-04-23 06:32 | 39.07757 | -104.46854 | 13202 ft | 160 kts | 303° |
| 2026-04-23 06:32 | 39.08489 | -104.47893 | 13002 ft | 154 kts | 300° |
| 2026-04-23 06:32 | 39.09155 | -104.48954 | 12813 ft | 151 kts | 297° |
| 2026-04-23 06:32 | 39.09766 | -104.50057 | 12604 ft | 151 kts | 295° |
| 2026-04-23 06:33 | 39.10331 | -104.51204 | 12393 ft | 152 kts | 292° |
| 2026-04-23 06:33 | 39.10842 | -104.52391 | 12186 ft | 151 kts | 290° |
| 2026-04-23 06:33 | 39.11300 | -104.53608 | 11985 ft | 151 kts | 287° |
| 2026-04-23 06:33 | 39.11702 | -104.54851 | 11769 ft | 151 kts | 284° |
| 2026-04-23 06:34 | 39.12046 | -104.56113 | 11551 ft | 148 kts | 282° |
| 2026-04-23 06:34 | 39.12328 | -104.57367 | 11361 ft | 144 kts | 279° |
| 2026-04-23 06:34 | 39.12551 | -104.58613 | 11182 ft | 142 kts | 276° |
| 2026-04-23 06:34 | 39.12721 | -104.59861 | 10987 ft | 141 kts | 274° |
| 2026-04-23 06:35 | 39.12838 | -104.61103 | 10809 ft | 139 kts | 272° |
| 2026-04-23 06:35 | 39.12904 | -104.62333 | 10628 ft | 137 kts | 269° |
| 2026-04-23 06:35 | 39.12919 | -104.63557 | 10443 ft | 136 kts | 266° |
| 2026-04-23 06:35 | 39.12769 | -104.64757 | 10262 ft | 136 kts | 255° |
| 2026-04-23 06:36 | 39.12402 | -104.65887 | 10080 ft | 138 kts | 245° |
| 2026-04-23 06:36 | 39.11829 | -104.66891 | 9875 ft | 143 kts | 234° |
| 2026-04-23 06:36 | 39.11044 | -104.67723 | 9780 ft | 151 kts | 221° |
| 2026-04-23 06:36 | 39.10058 | -104.68305 | 9691 ft | 162 kts | 207° |
| 2026-04-23 06:37 | 39.08902 | -104.68525 | 9577 ft | 174 kts | 190° |
| 2026-04-23 06:37 | 39.07682 | -104.68518 | 9479 ft | 176 kts | 188° |
| 2026-04-23 06:37 | 39.06456 | -104.68520 | 9373 ft | 175 kts | 189° |
| 2026-04-23 06:37 | 39.05236 | -104.68525 | 9264 ft | 175 kts | 188° |
| 2026-04-23 06:38 | 39.04037 | -104.68530 | 9157 ft | 174 kts | 188° |
| 2026-04-23 06:38 | 39.02835 | -104.68533 | 9046 ft | 172 kts | 188° |
| 2026-04-23 06:38 | 39.01650 | -104.68537 | 8960 ft | 169 kts | 188° |
| 2026-04-23 06:38 | 39.00484 | -104.68540 | 8990 ft | 165 kts | 188° |
| 2026-04-23 06:39 | 38.99364 | -104.68540 | 8998 ft | 158 kts | 189° |
| 2026-04-23 06:39 | 38.98283 | -104.68544 | 9000 ft | 153 kts | 189° |
| 2026-04-23 06:39 | 38.97235 | -104.68545 | 9015 ft | 149 kts | 188° |
| 2026-04-23 06:39 | 38.96198 | -104.68547 | 9002 ft | 149 kts | 189° |
| 2026-04-23 06:40 | 38.95149 | -104.68549 | 8854 ft | 153 kts | 188° |
| 2026-04-23 06:40 | 38.94076 | -104.68553 | 8661 ft | 155 kts | 188° |
| 2026-04-23 06:40 | 38.92998 | -104.68558 | 8454 ft | 155 kts | 187° |
| 2026-04-23 06:40 | 38.92290 | -104.68555 | 8321 ft | 152 kts | 188° |
| 2026-04-23 06:41 | 38.90934 | -104.68556 | 8061 ft | 138 kts | 188° |
| 2026-04-23 06:41 | 38.90319 | -104.68560 | 7941 ft | 129 kts | 186° |
| 2026-04-23 06:41 | 38.89467 | -104.68558 | 7832 ft | 119 kts | 186° |
| 2026-04-23 06:41 | 38.88656 | -104.68561 | 7724 ft | 114 kts | 186° |
| 2026-04-23 06:42 | 38.87866 | -104.68563 | 7614 ft | 115 kts | 187° |
| 2026-04-23 06:42 | 38.87090 | -104.68561 | 7339 ft | 105 kts | 188° |
| 2026-04-23 06:42 | 38.86399 | -104.68562 | 7205 ft | 94 kts | 187° |
| 2026-04-23 06:42 | 38.85766 | -104.68566 | 7101 ft | 89 kts | 187° |
| 2026-04-23 06:43 | 38.85165 | -104.68563 | 7001 ft | 84 kts | 185° |
| 2026-04-23 06:43 | 38.84598 | -104.68564 | 6907 ft | 79 kts | 185° |
| 2026-04-23 06:43 | 38.84015 | -104.68558 | 6781 ft | 87 kts | 184° |
| 2026-04-23 06:43 | 38.83407 | -104.68567 | 6656 ft | 89 kts | 183° |
| 2026-04-23 06:44 | 38.82779 | -104.68566 | 6509 ft | 91 kts | 183° |
| 2026-04-23 06:44 | 38.82142 | -104.68573 | 6368 ft | 92 kts | 182° |
| 2026-04-23 06:44 | 38.81499 | -104.68573 | 6211 ft | 91 kts | 182° |
| 2026-04-23 06:44 | 38.81092 | -104.68574 | 6191 ft | 34 kts | 180° |
| 2026-04-23 06:45 | 38.80918 | -104.68576 | 6191 ft | 20 kts | 180° |
| 2026-04-23 06:45 | 38.80773 | -104.68575 | 6190 ft | 18 kts | 179° |
| 2026-04-23 06:45 | 38.80702 | -104.68613 | 6190 ft | 9 kts | 277° |
| 2026-04-23 06:45 | 38.80754 | -104.68663 | 6191 ft | 11 kts | 330° |
| 2026-04-23 06:46 | 38.80787 | -104.68743 | 6191 ft | 10 kts | 250° |
| 2026-04-23 06:46 | 38.80726 | -104.68787 | 6192 ft | 14 kts | 180° |
| 2026-04-23 06:46 | 38.80629 | -104.68787 | 6192 ft | 15 kts | 180° |
| 2026-04-23 06:46 | 38.80522 | -104.68787 | 6192 ft | 15 kts | 179° |
| 2026-04-23 06:47 | 38.80421 | -104.68786 | 6193 ft | 12 kts | 180° |
| 2026-04-23 06:47 | 38.80362 | -104.68835 | 6193 ft | 13 kts | 262° |
| 2026-04-23 06:47 | 38.80361 | -104.68994 | 6193 ft | 21 kts | 270° |
| 2026-04-23 06:47 | 38.80361 | -104.69168 | 6192 ft | 20 kts | 270° |
| 2026-04-23 06:48 | 38.80362 | -104.69343 | 6192 ft | 18 kts | 270° |
| 2026-04-23 06:48 | 38.80362 | -104.69491 | 6192 ft | 16 kts | 269° |
| 2026-04-23 06:48 | 38.80362 | -104.69634 | 6192 ft | 17 kts | 269° |
| 2026-04-23 06:48 | 38.80361 | -104.69794 | 6192 ft | 17 kts | 269° |
| 2026-04-23 06:49 | 38.80362 | -104.69948 | 6192 ft | 18 kts | 269° |
| 2026-04-23 06:49 | 38.80362 | -104.70108 | 6192 ft | 16 kts | 270° |
| 2026-04-23 06:49 | 38.80362 | -104.70233 | 6192 ft | 14 kts | 270° |
| 2026-04-23 06:49 | 38.80361 | -104.70382 | 6192 ft | 15 kts | 261° |
| 2026-04-23 06:50 | 38.80302 | -104.70437 | 6192 ft | 12 kts | 179° |
| 2026-04-23 06:50 | 38.80199 | -104.70435 | 6192 ft | 13 kts | 180° |
| 2026-04-23 06:50 | 38.80128 | -104.70436 | 6192 ft | 9 kts | 181° |
| 2026-04-23 06:50 | 38.80078 | -104.70393 | 6192 ft | 10 kts | 99° |
| 2026-04-23 06:51 | 38.80050 | -104.70335 | 6192 ft | 7 kts | 177° |
| 2026-04-23 06:51 | 38.80027 | -104.70351 | 6192 ft | 4 kts | 249° |
| 2026-04-23 06:51 | 38.80023 | -104.70363 | 6192 ft | 0 kts | 244° |